Time;durP1;ratioP1;P1;durP2;ratioP2;P2;SDS_P1;SDS_P2;PMS_P1;PMS_P2;Temp;Humidity;BMP_temperature;BMP_pressure;BME280_temperature;BME280_humidity;BME280_pressure;Samples;Min_cycle;Max_cycle;Signal;HPM_P1;HPM_P2
2023/03/05 00:00:31;;;;;;;;;;;;;;;27.34;25.41;100280.75;5066742;28;1155;-27
2023/03/05 00:02:57;;;;;;;;;;;;;;;29.26;22.99;100279.44;5086020;28;1126;-26
2023/03/05 00:05:22;;;;;;;;;;;;;;;29.54;22.84;100283.78;5065400;28;1046;-27
2023/03/05 00:07:48;;;;;;;;;;;;;;;29.78;22.41;100282.28;5076665;28;1905;-27
2023/03/05 00:10:13;;;;;;;;;;;;;;;29.79;22.27;100286.69;5068717;28;877;-31
2023/03/05 00:12:39;;;;;;;;;;;;;;;29.75;22.50;100282.72;5071630;28;1134;-30
2023/03/05 00:15:05;;;;;;;;;;;;;;;28.30;24.13;100283.78;5076378;28;1174;-27
2023/03/05 00:17:30;;;;;;;;;;;;;;;27.49;25.46;100275.25;5076593;28;1422;-27
2023/03/05 00:19:57;;;;;;;;;;;;;;;29.02;23.43;100277.13;5076574;28;1125;-27
2023/03/05 00:22:22;;;;;;;;;;;;;;;29.16;23.11;100272.53;5083234;28;1046;-26
2023/03/05 00:24:51;;;;;;;;;;;;;;;29.34;23.01;100271.09;5076754;28;1110;-28
2023/03/05 00:27:16;;;;;;;;;;;;;;;29.61;22.55;100262.97;5076535;28;1906;-30
2023/03/05 00:29:42;;;;;;;;;;;;;;;29.68;22.47;100258.34;5076839;28;1142;-26
2023/03/05 00:32:08;;;;;;;;;;;;;;;28.97;22.95;100247.13;5076817;28;1054;-30
2023/03/05 00:34:35;;;;;;;;;;;;;;;27.41;25.36;100251.91;5077486;28;870;-26
2023/03/05 00:37:00;;;;;;;;;;;;;;;28.91;23.42;100251.47;5076025;28;1030;-27
2023/03/05 00:39:26;;;;;;;;;;;;;;;29.31;22.89;100237.09;5052691;28;1167;-28
2023/03/05 00:41:51;;;;;;;;;;;;;;;29.70;22.43;100256.25;5054152;28;1083;-27
2023/03/05 00:44:17;;;;;;;;;;;;;;;29.87;22.14;100247.66;5058594;28;1112;-30
2023/03/05 00:46:43;;;;;;;;;;;;;;;29.74;22.32;100251.25;5066300;28;1204;-27
2023/03/05 00:49:08;;;;;;;;;;;;;;;28.89;22.99;100242.75;5076516;28;1988;-31
2023/03/05 00:51:34;;;;;;;;;;;;;;;27.53;25.02;100244.09;5076142;28;1000;-26
2023/03/05 00:54:00;;;;;;;;;;;;;;;28.96;23.30;100243.56;5058150;28;1122;-32
2023/03/05 00:56:26;;;;;;;;;;;;;;;29.70;22.52;100247.28;5076577;28;1138;-27
2023/03/05 00:58:53;;;;;;;;;;;;;;;28.52;23.49;100244.97;5075588;28;859;-29
2023/03/05 01:01:19;;;;;;;;;;;;;;;28.62;23.58;100242.72;5076364;28;1070;-27
2023/03/05 01:03:44;;;;;;;;;;;;;;;28.89;23.61;100250.03;5058197;28;1178;-27
2023/03/05 01:06:11;;;;;;;;;;;;;;;28.89;23.61;100245.44;5076227;28;1113;-26
2023/03/05 01:08:36;;;;;;;;;;;;;;;29.13;23.16;100248.59;5076199;28;1909;-27
2023/03/05 01:11:02;;;;;;;;;;;;;;;29.43;22.74;100250.84;5067218;28;1152;-28
2023/03/05 01:13:28;;;;;;;;;;;;;;;29.45;22.85;100248.78;5075544;28;1026;-28
2023/03/05 01:15:53;;;;;;;;;;;;;;;29.74;22.40;100242.25;5076476;28;1138;-29
2023/03/05 01:18:21;;;;;;;;;;;;;;;29.91;22.21;100243.44;5067519;28;1237;-30
2023/03/05 01:20:48;;;;;;;;;;;;;;;28.01;24.54;100238.97;5071776;28;1039;-27
2023/03/05 01:23:14;;;;;;;;;;;;;;;28.32;24.55;100241.16;5079265;28;844;-29
2023/03/05 01:25:39;;;;;;;;;;;;;;;29.57;22.78;100246.25;5079369;28;1058;-27
2023/03/05 01:28:05;;;;;;;;;;;;;;;29.83;22.40;100257.25;5079684;28;1982;-27
2023/03/05 01:30:31;;;;;;;;;;;;;;;29.85;22.28;100238.88;5079800;28;1166;-28
2023/03/05 01:32:56;;;;;;;;;;;;;;;29.81;22.26;100254.75;5080080;28;1197;-30
2023/03/05 01:35:22;;;;;;;;;;;;;;;29.55;22.72;100261.03;5087069;28;1121;-27
2023/03/05 01:37:48;;;;;;;;;;;;;;;27.73;24.78;100248.78;5051546;28;1198;-28
2023/03/05 01:40:15;;;;;;;;;;;;;;;28.29;24.22;100260.50;5081997;28;1201;-27
2023/03/05 01:42:45;;;;;;;;;;;;;;;29.06;23.12;100258.59;5061958;28;1324;-31
2023/03/05 01:45:12;;;;;;;;;;;;;;;29.28;22.95;100259.19;5079691;28;1218;-30
2023/03/05 01:47:38;;;;;;;;;;;;;;;29.39;22.90;100265.03;5055005;28;1914;-27
2023/03/05 01:50:04;;;;;;;;;;;;;;;29.38;22.86;100269.59;5076487;28;1006;-27
2023/03/05 01:52:30;;;;;;;;;;;;;;;29.43;22.81;100266.25;5061993;28;1145;-29
2023/03/05 01:54:57;;;;;;;;;;;;;;;28.15;24.28;100270.41;5079207;28;1236;-27
2023/03/05 01:57:31;;;;;;;;;;;;;;;27.36;25.30;100273.28;5079480;28;1082;-29
2023/03/05 01:59:58;;;;;;;;;;;;;;;29.01;23.34;100280.06;5052301;28;1168;-28
2023/03/05 02:02:23;;;;;;;;;;;;;;;29.12;22.99;100275.88;5053475;28;1100;-27
2023/03/05 02:04:50;;;;;;;;;;;;;;;29.30;23.00;100275.25;5079202;28;1194;-28
2023/03/05 02:07:15;;;;;;;;;;;;;;;29.36;22.88;100277.13;5079377;28;1901;-28
2023/03/05 02:09:41;;;;;;;;;;;;;;;29.32;22.90;100273.16;5061085;28;1190;-27
2023/03/05 02:12:07;;;;;;;;;;;;;;;29.01;22.95;100261.91;5074928;28;885;-29
2023/03/05 02:14:33;;;;;;;;;;;;;;;27.70;25.02;100262.72;5045660;28;1223;-29
2023/03/05 02:16:58;;;;;;;;;;;;;;;28.61;24.04;100270.81;5079417;28;1205;-28
2023/03/05 02:19:24;;;;;;;;;;;;;;;29.00;23.26;100267.53;5078161;28;1059;-27
2023/03/05 02:21:49;;;;;;;;;;;;;;;28.11;24.57;100272.69;5079159;28;1058;-27
2023/03/05 02:24:30;;;;;;;;;;;;;;;28.60;24.02;100280.78;5087990;28;990;-27
2023/03/05 02:26:56;;;;;;;;;;;;;;;28.88;23.41;100270.03;5071892;28;1975;-27
2023/03/05 02:29:21;;;;;;;;;;;;;;;28.99;23.35;100269.44;5078754;28;1157;-27
2023/03/05 02:31:47;;;;;;;;;;;;;;;29.27;23.14;100264.84;5061008;28;1206;-30
2023/03/05 02:34:13;;;;;;;;;;;;;;;29.47;22.71;100278.38;5078477;28;1170;-27
2023/03/05 02:36:38;;;;;;;;;;;;;;;29.59;22.64;100284.00;5072436;28;941;-33
2023/03/05 02:39:04;;;;;;;;;;;;;;;29.80;22.35;100279.34;5057344;28;1413;-27
2023/03/05 02:41:30;;;;;;;;;;;;;;;28.14;24.06;100274.19;5071095;28;1059;-27
2023/03/05 02:43:57;;;;;;;;;;;;;;;27.43;25.47;100274.16;5060737;28;1131;-30
2023/03/05 02:46:22;;;;;;;;;;;;;;;29.34;22.96;100279.22;5060740;28;1239;-29
2023/03/05 02:48:48;;;;;;;;;;;;;;;29.62;22.58;100282.75;5060213;28;1909;-28
2023/03/05 02:51:14;;;;;;;;;;;;;;;29.76;22.28;100276.22;5060480;28;1375;-27
2023/03/05 02:53:42;;;;;;;;;;;;;;;29.76;22.56;100272.72;5060124;28;1590;-27
2023/03/05 02:56:08;;;;;;;;;;;;;;;29.81;22.35;100275.63;5060329;28;1249;-27
2023/03/05 02:58:34;;;;;;;;;;;;;;;28.33;23.99;100280.72;5061361;28;1252;-27
2023/03/05 03:01:00;;;;;;;;;;;;;;;27.67;24.98;100284.69;5053465;28;1194;-26
2023/03/05 03:03:25;;;;;;;;;;;;;;;29.23;23.06;100279.84;5083838;28;1079;-27
2023/03/05 03:05:51;;;;;;;;;;;;;;;29.27;23.02;100284.63;5085342;28;1113;-29
2023/03/05 03:08:16;;;;;;;;;;;;;;;29.41;23.02;100288.16;5078302;28;1983;-29
2023/03/05 03:10:42;;;;;;;;;;;;;;;29.62;22.60;100293.59;5079348;28;1066;-28
2023/03/05 03:13:08;;;;;;;;;;;;;;;29.64;22.57;100289.63;5065304;28;1186;-27
2023/03/05 03:15:33;;;;;;;;;;;;;;;28.52;23.65;100282.84;5078146;28;1118;-27
2023/03/05 03:17:59;;;;;;;;;;;;;;;27.42;25.39;100283.28;5077472;28;1137;-27
2023/03/05 03:20:24;;;;;;;;;;;;;;;29.06;23.52;100282.97;5077945;28;1098;-29
2023/03/05 03:22:50;;;;;;;;;;;;;;;29.45;23.06;100291.28;5079162;28;1104;-28
2023/03/05 03:25:16;;;;;;;;;;;;;;;29.51;22.89;100295.03;5085325;28;1097;-26
2023/03/05 03:27:42;;;;;;;;;;;;;;;29.63;22.60;100298.78;5077722;28;1968;-27
2023/03/05 03:30:08;;;;;;;;;;;;;;;29.42;23.02;100295.25;5077792;28;1042;-29
2023/03/05 03:32:33;;;;;;;;;;;;;;;28.44;23.90;100292.00;5076726;28;1057;-30
2023/03/05 03:34:59;;;;;;;;;;;;;;;28.00;24.79;100289.50;5080026;28;1121;-30
2023/03/05 03:37:24;;;;;;;;;;;;;;;28.97;23.77;100285.03;5078186;28;1117;-29
2023/03/05 03:39:50;;;;;;;;;;;;;;;29.10;23.49;100278.78;5080274;28;1162;-26
2023/03/05 03:42:18;;;;;;;;;;;;;;;29.40;23.20;100288.38;5076800;28;1059;-30
2023/03/05 03:44:44;;;;;;;;;;;;;;;29.49;22.69;100287.13;5077725;28;1046;-30
2023/03/05 03:47:10;;;;;;;;;;;;;;;29.41;22.91;100285.44;5079365;28;1910;-28
2023/03/05 03:49:35;;;;;;;;;;;;;;;29.42;22.68;100284.41;5076470;28;1154;-31
2023/03/05 03:52:01;;;;;;;;;;;;;;;27.83;24.94;100288.97;5076819;28;1237;-32
2023/03/05 03:54:26;;;;;;;;;;;;;;;28.43;24.39;100285.75;5077207;28;1141;-28
2023/03/05 03:56:52;;;;;;;;;;;;;;;29.17;23.26;100285.06;5076865;28;1097;-27
2023/03/05 03:59:17;;;;;;;;;;;;;;;29.22;23.24;100287.13;5080265;28;1046;-27
2023/03/05 04:01:43;;;;;;;;;;;;;;;29.40;22.74;100291.91;5064070;28;1133;-29
2023/03/05 04:04:09;;;;;;;;;;;;;;;29.09;23.26;100288.78;5077281;28;1055;-31
2023/03/05 04:06:35;;;;;;;;;;;;;;;29.45;22.78;100291.28;5077145;28;1141;-28
2023/03/05 04:09:00;;;;;;;;;;;;;;;28.37;24.03;100283.84;5077110;28;1914;-31
2023/03/05 04:11:26;;;;;;;;;;;;;;;27.54;25.38;100282.75;5080169;28;1075;-27
2023/03/05 04:13:51;;;;;;;;;;;;;;;29.10;23.50;100286.91;5072830;28;1165;-29
2023/03/05 04:16:18;;;;;;;;;;;;;;;29.38;23.00;100282.34;5057616;28;1083;-27
2023/03/05 04:18:43;;;;;;;;;;;;;;;29.50;22.89;100280.66;5060948;28;1210;-26
2023/03/05 04:21:09;;;;;;;;;;;;;;;29.58;22.78;100283.13;5076998;28;1146;-28
2023/03/05 04:23:35;;;;;;;;;;;;;;;29.44;22.66;100279.63;5081158;28;1055;-27
2023/03/05 04:26:00;;;;;;;;;;;;;;;28.62;23.44;100266.22;5085431;28;1068;-28
2023/03/05 04:28:26;;;;;;;;;;;;;;;27.58;24.95;100270.50;5076319;28;1898;-25
2023/03/05 04:30:51;;;;;;;;;;;;;;;28.87;23.55;100268.34;5076541;28;1031;-29
2023/03/05 04:33:17;;;;;;;;;;;;;;;29.16;23.11;100271.72;5076272;28;1067;-30
2023/03/05 04:35:42;;;;;;;;;;;;;;;29.42;22.91;100278.16;5080689;28;1111;-27
2023/03/05 04:38:08;;;;;;;;;;;;;;;27.56;22.89;100265.28;5080590;28;1065;-30
2023/03/05 04:40:34;;;;;;;;;;;;;;;26.06;24.71;100272.13;5074978;28;1154;-28
2023/03/05 04:43:00;;;;;;;;;;;;;;;26.53;24.03;100270.84;5074460;28;1210;-31
2023/03/05 04:45:25;;;;;;;;;;;;;;;26.77;23.11;100276.06;5076280;28;1019;-28
2023/03/05 04:47:51;;;;;;;;;;;;;;;26.86;22.56;100274.09;5076123;28;1972;-28
2023/03/05 04:50:16;;;;;;;;;;;;;;;26.88;22.90;100274.69;5076344;28;1030;-28
2023/03/05 04:52:42;;;;;;;;;;;;;;;28.25;21.41;100280.88;5075468;28;1184;-25
2023/03/05 04:55:08;;;;;;;;;;;;;;;28.73;20.95;100281.84;5076508;28;1067;-24
2023/03/05 04:57:34;;;;;;;;;;;;;;;29.06;20.84;100285.69;5080755;28;1069;-26
2023/03/05 04:59:59;;;;;;;;;;;;;;;28.98;20.73;100265.03;5079212;28;1161;-26
2023/03/05 05:02:25;;;;;;;;;;;;;;;29.39;20.26;100284.00;5075257;28;1225;-26
2023/03/05 05:04:53;;;;;;;;;;;;;;;29.55;20.16;100286.28;5075756;28;1015;-25
2023/03/05 05:07:19;;;;;;;;;;;;;;;27.56;20.59;100275.28;5076295;28;1976;-25
2023/03/05 05:09:44;;;;;;;;;;;;;;;26.80;23.04;100272.13;5076182;28;1051;-26
2023/03/05 05:12:10;;;;;;;;;;;;;;;29.37;20.47;100278.78;5081913;28;1166;-27
2023/03/05 05:14:36;;;;;;;;;;;;;;;29.68;20.08;100273.75;5077356;28;1054;-24
2023/03/05 05:17:03;;;;;;;;;;;;;;;29.80;20.19;100282.06;5088280;28;1062;-24
2023/03/05 05:19:30;;;;;;;;;;;;;;;29.78;20.33;100287.72;5063849;28;1261;-25
2023/03/05 05:21:55;;;;;;;;;;;;;;;29.85;20.25;100281.44;5076383;28;1062;-27
2023/03/05 05:24:21;;;;;;;;;;;;;;;27.83;22.54;100279.00;5077043;28;1063;-25
2023/03/05 05:26:47;;;;;;;;;;;;;;;27.61;22.91;100279.06;5088318;28;1136;-26
2023/03/05 05:29:12;;;;;;;;;;;;;;;29.08;21.32;100284.41;5076764;28;1901;-25
2023/03/05 05:31:38;;;;;;;;;;;;;;;29.28;21.00;100282.78;5075549;28;1054;-27
2023/03/05 05:34:03;;;;;;;;;;;;;;;29.52;20.95;100283.16;5075908;28;1105;-25
2023/03/05 05:36:29;;;;;;;;;;;;;;;29.71;20.51;100284.19;5082804;28;1083;-26
2023/03/05 05:38:55;;;;;;;;;;;;;;;29.74;20.68;100288.34;5075390;28;1070;-26
2023/03/05 05:41:20;;;;;;;;;;;;;;;28.09;23.53;100288.28;5067516;28;1038;-26
2023/03/05 05:43:46;;;;;;;;;;;;;;;27.55;24.24;100285.25;5075885;28;1071;-25
2023/03/05 05:46:13;;;;;;;;;;;;;;;29.26;22.33;100288.38;5076251;28;1147;-25
2023/03/05 05:48:38;;;;;;;;;;;;;;;29.58;22.32;100293.13;5073054;28;1967;-23
2023/03/05 05:51:05;;;;;;;;;;;;;;;29.90;22.14;100293.31;5055602;28;1181;-25
2023/03/05 05:53:31;;;;;;;;;;;;;;;30.23;22.28;100294.25;5043318;28;1066;-24
2023/03/05 05:55:56;;;;;;;;;;;;;;;28.56;23.82;100294.94;5075871;28;1067;-23
2023/03/05 05:58:22;;;;;;;;;;;;;;;28.01;24.47;100298.44;5075290;28;1086;-24
2023/03/05 06:00:47;;;;;;;;;;;;;;;28.76;23.24;100302.28;5083797;28;1147;-26
2023/03/05 06:03:13;;;;;;;;;;;;;;;28.76;23.26;100302.28;5076551;28;1081;-26
2023/03/05 06:05:39;;;;;;;;;;;;;;;29.26;22.60;100299.19;5075787;28;1051;-24
2023/03/05 06:08:05;;;;;;;;;;;;;;;29.59;22.03;100302.97;5074563;28;1894;-24
2023/03/05 06:10:30;;;;;;;;;;;;;;;29.74;21.85;100297.31;5075574;28;1150;-25
2023/03/05 06:12:56;;;;;;;;;;;;;;;29.94;21.47;100310.00;5082560;28;1015;-24
2023/03/05 06:15:21;;;;;;;;;;;;;;;27.74;23.74;100302.66;5079314;28;1050;-25
2023/03/05 06:17:47;;;;;;;;;;;;;;;27.45;24.08;100312.63;5078966;28;1070;-24
2023/03/05 06:20:13;;;;;;;;;;;;;;;29.24;21.65;100312.16;5078965;28;1050;-24
2023/03/05 06:22:38;;;;;;;;;;;;;;;29.60;20.24;100318.19;5078823;28;1142;-28
2023/03/05 06:25:05;;;;;;;;;;;;;;;29.73;19.81;100327.34;5087898;28;1109;-26
2023/03/05 06:27:30;;;;;;;;;;;;;;;27.31;23.39;100322.47;5067976;28;1906;-24
2023/03/05 06:29:56;;;;;;;;;;;;;;;26.24;25.42;100321.06;5078943;28;1071;-24
2023/03/05 06:32:22;;;;;;;;;;;;;;;25.91;25.88;100313.38;5079034;28;1146;-24
2023/03/05 06:34:48;;;;;;;;;;;;;;;27.17;24.37;100310.72;5078476;28;1094;-26
2023/03/05 06:37:13;;;;;;;;;;;;;;;27.68;23.58;100305.28;5083757;28;1203;-27
2023/03/05 06:39:39;;;;;;;;;;;;;;;28.23;22.68;100312.69;5081950;28;1114;-27
2023/03/05 06:42:04;;;;;;;;;;;;;;;26.91;24.49;100309.41;5078375;28;1042;-24
2023/03/05 06:44:30;;;;;;;;;;;;;;;27.01;24.47;100306.38;5078806;28;1039;-25
2023/03/05 06:46:56;;;;;;;;;;;;;;;27.20;23.94;100310.34;5078126;28;1212;-26
2023/03/05 06:49:21;;;;;;;;;;;;;;;27.04;24.34;100305.19;5087806;28;1914;-26
2023/03/05 06:51:47;;;;;;;;;;;;;;;27.41;24.04;100307.81;5081840;28;1073;-26
2023/03/05 06:54:13;;;;;;;;;;;;;;;28.03;23.19;100301.78;5077752;28;1229;-26
2023/03/05 06:56:39;;;;;;;;;;;;;;;26.78;24.90;100305.56;5078073;28;1102;-29
2023/03/05 06:59:05;;;;;;;;;;;;;;;27.13;24.31;100306.72;5088221;28;1165;-26
2023/03/05 07:01:30;;;;;;;;;;;;;;;27.60;24.25;100309.81;5074392;28;1150;-26
2023/03/05 07:03:59;;;;;;;;;;;;;;;27.54;24.32;100307.06;5078382;28;1095;-25
2023/03/05 07:06:26;;;;;;;;;;;;;;;28.02;23.77;100310.91;5078070;28;1158;-26
2023/03/05 07:08:53;;;;;;;;;;;;;;;27.33;24.76;100308.75;5060655;28;1906;-27
2023/03/05 07:11:19;;;;;;;;;;;;;;;26.68;25.85;100310.41;5077727;28;1121;-24
2023/03/05 07:13:47;;;;;;;;;;;;;;;27.45;24.25;100298.25;5077574;28;1456;-26
2023/03/05 07:16:14;;;;;;;;;;;;;;;27.31;25.19;100292.75;5078561;28;1127;-24
2023/03/05 07:18:39;;;;;;;;;;;;;;;27.49;25.31;100294.97;5066355;28;1142;-27
2023/03/05 07:21:05;;;;;;;;;;;;;;;28.05;24.48;100289.72;5076298;28;1170;-24
2023/03/05 07:23:31;;;;;;;;;;;;;;;27.28;25.36;100279.66;5077303;28;1130;-26
2023/03/05 07:25:59;;;;;;;;;;;;;;;26.50;26.70;100283.88;5076992;28;1201;-23
2023/03/05 07:28:25;;;;;;;;;;;;;;;27.12;25.77;100278.06;5077569;28;1910;-27
2023/03/05 07:30:57;;;;;;;;;;;;;;;27.30;25.72;100282.16;5077588;28;1117;-26
2023/03/05 07:33:23;;;;;;;;;;;;;;;27.56;25.30;100278.81;5077457;28;1536;-25
2023/03/05 07:35:48;;;;;;;;;;;;;;;27.83;24.64;100275.47;5077272;28;1185;-24
2023/03/05 07:38:14;;;;;;;;;;;;;;;26.88;26.01;100263.91;5066838;28;890;-28
2023/03/05 07:40:39;;;;;;;;;;;;;;;27.01;25.75;100268.59;5077269;28;1123;-24
2023/03/05 07:43:05;;;;;;;;;;;;;;;27.52;25.21;100264.03;5077394;28;1023;-25
2023/03/05 07:45:33;;;;;;;;;;;;;;;27.45;25.34;100263.16;5059532;28;1226;-24
2023/03/05 07:47:58;;;;;;;;;;;;;;;27.82;25.30;100263.84;5077257;28;1967;-25
2023/03/05 07:50:24;;;;;;;;;;;;;;;27.42;25.17;100256.28;5078413;28;1296;-28
2023/03/05 07:52:50;;;;;;;;;;;;;;;26.51;26.77;100259.41;5070430;28;1143;-27
2023/03/05 07:55:15;;;;;;;;;;;;;;;27.10;26.47;100258.53;5063979;28;1091;-24
2023/03/05 07:57:41;;;;;;;;;;;;;;;27.71;25.56;100259.81;5077306;28;1057;-26
2023/03/05 08:00:07;;;;;;;;;;;;;;;28.14;24.55;100255.25;5076874;28;1405;-24
2023/03/05 08:02:37;;;;;;;;;;;;;;;27.00;25.79;100253.44;5064387;28;875;-23
2023/03/05 08:06:42;;;;;;;;;;;;;;;27.10;26.11;100263.94;5094323;27;1333;-41
2023/03/05 08:09:07;;;;;;;;;;;;;;;27.70;25.04;100251.91;5093722;28;1177;-44
2023/03/05 08:11:33;;;;;;;;;;;;;;;28.02;24.46;100259.53;5093370;28;1156;-43
2023/03/05 08:13:59;;;;;;;;;;;;;;;27.62;24.48;100259.13;5080190;28;1143;-44
2023/03/05 08:16:25;;;;;;;;;;;;;;;27.06;25.30;100260.78;5060005;28;1114;-43
2023/03/05 08:18:53;;;;;;;;;;;;;;;27.24;25.34;100256.78;5073471;28;1125;-44
2023/03/05 08:21:19;;;;;;;;;;;;;;;27.83;24.64;100256.53;5059382;28;955;-44
2023/03/05 08:23:45;;;;;;;;;;;;;;;27.98;24.71;100259.09;5086548;28;1030;-44
2023/03/05 08:26:14;;;;;;;;;;;;;;;27.75;24.58;100258.41;5079431;28;1978;-43
2023/03/05 08:28:40;;;;;;;;;;;;;;;27.01;25.87;100249.69;5073054;28;1137;-43
2023/03/05 08:31:09;;;;;;;;;;;;;;;27.29;25.62;100259.72;5080111;28;1091;-25
2023/03/05 08:33:35;;;;;;;;;;;;;;;27.68;25.22;100248.53;5079206;28;1529;-25
2023/03/05 08:36:00;;;;;;;;;;;;;;;27.73;25.02;100254.19;5085717;28;1029;-25
2023/03/05 08:38:26;;;;;;;;;;;;;;;28.16;24.66;100247.75;5065808;28;1050;-25
2023/03/05 08:40:51;;;;;;;;;;;;;;;27.16;25.78;100240.72;5093247;28;1236;-30
2023/03/05 08:43:17;;;;;;;;;;;;;;;26.82;26.09;100235.00;5092868;28;1129;-26
2023/03/05 08:45:42;;;;;;;;;;;;;;;26.80;25.63;100224.41;5085537;28;1909;-25
2023/03/05 08:48:08;;;;;;;;;;;;;;;26.69;26.58;100223.06;5072754;28;1027;-26
2023/03/05 08:50:36;;;;;;;;;;;;;;;27.16;25.60;100217.25;5075860;28;897;-25
2023/03/05 08:53:02;;;;;;;;;;;;;;;27.43;24.96;100227.38;5086123;28;1113;-26
2023/03/05 08:55:27;;;;;;;;;;;;;;;27.45;25.15;100228.03;5072333;28;1094;-26
2023/03/05 08:57:53;;;;;;;;;;;;;;;27.37;25.04;100220.94;5072567;28;1082;-28
2023/03/05 09:00:19;;;;;;;;;;;;;;;26.94;26.21;100219.13;5079403;28;1125;-25
2023/03/05 09:02:44;;;;;;;;;;;;;;;26.82;26.45;100219.66;5067919;28;1177;-25
2023/03/05 09:05:10;;;;;;;;;;;;;;;26.79;26.68;100211.94;5079449;28;1906;-26
2023/03/05 09:07:36;;;;;;;;;;;;;;;27.06;26.43;100214.88;5092281;28;1137;-25
2023/03/05 09:10:02;;;;;;;;;;;;;;;26.62;27.45;100206.81;5092710;28;1047;-24
2023/03/05 09:12:28;;;;;;;;;;;;;;;26.75;27.30;100208.81;5092377;28;1221;-26
2023/03/05 09:14:54;;;;;;;;;;;;;;;26.70;27.82;100207.69;5086774;28;877;-24
2023/03/05 09:17:19;;;;;;;;;;;;;;;26.74;27.58;100201.72;5083236;28;1043;-25
2023/03/05 09:19:45;;;;;;;;;;;;;;;26.73;27.37;100204.59;5078747;28;1054;-25
2023/03/05 09:22:10;;;;;;;;;;;;;;;26.65;27.66;100192.94;5078463;28;1302;-26
2023/03/05 09:24:36;;;;;;;;;;;;;;;26.64;27.82;100183.16;5078895;28;1913;-26
2023/03/05 09:27:02;;;;;;;;;;;;;;;26.46;27.94;100189.00;5065821;28;1115;-27
2023/03/05 09:29:29;;;;;;;;;;;;;;;26.43;28.21;100181.31;5078532;28;1250;-25
2023/03/05 09:31:55;;;;;;;;;;;;;;;26.52;27.94;100185.56;5091590;28;1094;-26
2023/03/05 09:34:21;;;;;;;;;;;;;;;26.36;28.27;100177.72;5078817;28;1085;-25
2023/03/05 09:36:47;;;;;;;;;;;;;;;26.10;28.94;100189.84;5078516;28;1063;-25
2023/03/05 09:39:12;;;;;;;;;;;;;;;26.21;28.84;100186.66;5082056;28;913;-25
2023/03/05 09:41:55;;;;;;;;;;;;;;;26.11;29.56;100186.97;5098235;28;1229;-24
2023/03/05 09:44:40;;;;;;;;;;;;;;;26.16;29.69;100189.91;5080343;28;1979;-26
2023/03/05 09:47:16;;;;;;;;;;;;;;;26.70;27.88;100161.84;5098213;28;1100;-25
2023/03/05 09:49:41;;;;;;;;;;;;;;;27.20;26.65;100179.88;5079648;28;1117;-25
2023/03/05 09:52:12;;;;;;;;;;;;;;;27.04;26.28;100167.53;5078664;28;1157;-27
2023/03/05 09:54:39;;;;;;;;;;;;;;;26.81;26.68;100160.50;5060516;28;1111;-25
2023/03/05 09:57:04;;;;;;;;;;;;;;;26.36;26.90;100150.75;5060455;28;1123;-27
2023/03/05 09:59:30;;;;;;;;;;;;;;;26.46;27.48;100155.84;5077968;28;1177;-25
2023/03/05 10:02:00;;;;;;;;;;;;;;;26.55;27.73;100151.13;5075922;28;1117;-24
2023/03/05 10:04:42;;;;;;;;;;;;;;;26.57;27.89;100157.16;5071816;28;1976;-27
2023/03/05 10:07:19;;;;;;;;;;;;;;;26.07;28.50;100147.09;5065621;28;1247;-25
2023/03/05 10:09:45;;;;;;;;;;;;;;;25.87;29.24;100150.41;5077499;28;1106;-26
2023/03/05 10:12:26;;;;;;;;;;;;;;;26.98;28.63;100142.13;5078161;28;1170;-28
2023/03/05 10:14:52;;;;;;;;;;;;;;;26.70;28.21;100124.91;5077662;28;1114;-26
2023/03/05 10:17:41;;;;;;;;;;;;;;;26.40;29.24;100134.00;5098211;28;1201;-25
2023/03/05 10:20:13;;;;;;;;;;;;;;;26.51;29.27;100127.25;5084053;28;1330;-25
2023/03/05 10:22:47;;;;;;;;;;;;;;;26.75;28.85;100116.22;5073059;28;1143;-26
2023/03/05 10:25:13;;;;;;;;;;;;;;;26.65;28.29;100124.66;5059502;28;1981;-27
2023/03/05 10:27:51;;;;;;;;;;;;;;;26.31;29.25;100120.81;5076632;28;1237;-26
2023/03/05 10:30:43;;;;;;;;;;;;;;;26.19;29.51;100115.94;5077741;28;1161;-25
2023/03/05 10:33:14;;;;;;;;;;;;;;;26.24;29.40;100110.78;5056061;28;1055;-24
2023/03/05 10:35:58;;;;;;;;;;;;;;;26.17;29.46;100105.31;5097137;28;1153;-25
2023/03/05 10:38:31;;;;;;;;;;;;;;;26.58;29.00;100092.22;5093983;28;1181;-24
2023/03/05 10:40:57;;;;;;;;;;;;;;;26.94;28.02;100093.13;5077380;28;1103;-26
2023/03/05 10:43:41;;;;;;;;;;;;;;;26.48;28.01;100091.72;5059333;28;1098;-25
2023/03/05 10:46:11;;;;;;;;;;;;;;;26.65;27.93;100085.03;5065372;28;1988;-29
2023/03/05 10:48:40;;;;;;;;;;;;;;;26.63;28.17;100079.00;5059353;28;1147;-26
2023/03/05 10:51:11;;;;;;;;;;;;;;;27.22;27.20;100091.44;5067914;28;1075;-25
2023/03/05 10:53:57;;;;;;;;;;;;;;;26.72;27.84;100086.94;5090021;28;1055;-26
2023/03/05 10:56:23;;;;;;;;;;;;;;;26.33;28.51;100081.00;5096316;28;1270;-25
2023/03/05 10:58:50;;;;;;;;;;;;;;;26.09;29.09;100083.88;5096708;28;1170;-27
2023/03/05 11:01:26;;;;;;;;;;;;;;;26.32;28.25;100082.88;5097055;28;1109;-28
2023/03/05 11:03:56;;;;;;;;;;;;;;;26.95;27.86;100075.88;5078394;28;901;-28
2023/03/05 11:06:32;;;;;;;;;;;;;;;26.76;27.39;100078.25;5076140;28;1976;-27
2023/03/05 11:09:10;;;;;;;;;;;;;;;26.33;28.03;100068.38;5076664;28;1016;-26
2023/03/05 11:11:35;;;;;;;;;;;;;;;27.06;27.52;100077.22;5083247;28;1118;-26
2023/03/05 11:14:02;;;;;;;;;;;;;;;27.26;26.50;100071.06;5097011;28;1140;-27
2023/03/05 11:16:28;;;;;;;;;;;;;;;26.29;28.39;100064.38;5054815;28;1142;-25
2023/03/05 11:19:12;;;;;;;;;;;;;;;25.97;29.13;100058.47;5096671;28;1054;-26
2023/03/05 11:21:37;;;;;;;;;;;;;;;27.22;27.37;100062.56;5065496;28;1119;-26
2023/03/05 11:24:12;;;;;;;;;;;;;;;26.75;27.31;100057.72;5058847;28;1062;-26
2023/03/05 11:26:44;;;;;;;;;;;;;;;26.43;28.16;100056.41;5073630;28;1993;-25
2023/03/05 11:29:15;;;;;;;;;;;;;;;26.22;28.60;100050.84;5091813;28;1048;-27
2023/03/05 11:31:40;;;;;;;;;;;;;;;27.13;27.28;100050.25;5078235;28;1051;-25
2023/03/05 11:34:08;;;;;;;;;;;;;;;26.60;27.38;100049.72;5077576;28;1108;-25
2023/03/05 11:36:34;;;;;;;;;;;;;;;26.31;27.98;100045.31;5058560;28;1063;-27
2023/03/05 11:39:06;;;;;;;;;;;;;;;27.08;26.92;100044.63;5076008;28;1087;-27
2023/03/05 11:41:36;;;;;;;;;;;;;;;27.02;27.02;100047.09;5075847;28;1508;-28
2023/03/05 11:44:02;;;;;;;;;;;;;;;26.41;27.94;100035.88;5082164;28;1095;-29
2023/03/05 11:46:28;;;;;;;;;;;;;;;25.95;28.57;100030.88;5065675;28;1933;-30
2023/03/05 11:48:54;;;;;;;;;;;;;;;27.24;26.68;100033.47;5057376;28;1075;-27
2023/03/05 11:51:21;;;;;;;;;;;;;;;26.67;26.42;100040.81;5051031;28;1115;-26
2023/03/05 11:53:47;;;;;;;;;;;;;;;26.50;26.95;100028.50;5076939;28;1063;-28
2023/03/05 11:56:13;;;;;;;;;;;;;;;26.14;28.02;100037.50;5095550;28;1133;-25
2023/03/05 11:58:38;;;;;;;;;;;;;;;27.45;25.95;100038.97;5095788;28;1103;-25
2023/03/05 12:01:14;;;;;;;;;;;;;;;27.80;25.48;100029.94;5096303;28;1113;-25
2023/03/05 12:03:40;;;;;;;;;;;;;;;27.64;25.18;100026.56;5086609;28;920;-28
2023/03/05 12:06:12;;;;;;;;;;;;;;;26.72;27.03;100016.78;5075317;28;1906;-25
2023/03/05 12:08:39;;;;;;;;;;;;;;;27.88;25.58;100021.63;5075562;28;1112;-26
2023/03/05 12:11:12;;;;;;;;;;;;;;;28.17;24.97;100008.75;5075480;28;920;-28
2023/03/05 12:13:39;;;;;;;;;;;;;;;27.29;26.32;100023.94;5057072;28;1500;-25
2023/03/05 12:16:05;;;;;;;;;;;;;;;26.81;25.78;100021.00;5068055;28;843;-26
2023/03/05 12:18:43;;;;;;;;;;;;;;;27.76;25.24;100026.81;5077980;28;1054;-26
2023/03/05 12:21:26;;;;;;;;;;;;;;;28.14;25.10;100021.88;5087978;28;1063;-26
2023/03/05 12:23:57;;;;;;;;;;;;;;;27.28;25.84;100028.50;5094618;28;960;-27
2023/03/05 12:26:42;;;;;;;;;;;;;;;26.69;26.61;100025.28;5095433;28;1913;-26
2023/03/05 12:29:18;;;;;;;;;;;;;;;27.59;25.78;100023.63;5069230;28;879;-27
2023/03/05 12:31:44;;;;;;;;;;;;;;;27.85;25.27;100028.28;5057520;28;1162;-28
2023/03/05 12:34:32;;;;;;;;;;;;;;;28.05;24.68;100010.41;5075811;28;1170;-29
2023/03/05 12:36:58;;;;;;;;;;;;;;;27.12;25.90;100008.94;5067468;28;1391;-25
2023/03/05 12:39:39;;;;;;;;;;;;;;;26.76;26.39;100016.19;5078516;28;1086;-25
2023/03/05 12:42:39;;;;;;;;;;;;;;;27.60;25.95;100009.91;5075756;28;1158;-29
2023/03/05 12:45:08;;;;;;;;;;;;;;;27.89;25.28;100008.94;5013557;28;1977;-25
2023/03/05 12:47:36;;;;;;;;;;;;;;;27.62;25.74;100004.31;5063884;28;1012;-24
2023/03/05 12:50:02;;;;;;;;;;;;;;;27.12;26.54;99997.31;5075619;28;1015;-26